1MD7 weather

Shady Grove Adventist Hospital Heliport
Rockville, Maryland, United States

Public forecast

Using degrees Fahrenheit for public forecast. Weather courtesy of forecast.io.

METAR (pilot weather report)

Closest report is Montgomery County Airpark, 4.4 nm (8.2 km) NNE. Retrieved 2019/05/24 03:56 UTC (56 minutes ago):

KGAI 240356Z AUTO 25003KT 10SM CLR 21/20 A2996 RMK AO2 SLP167 T02110200

TAF (pilot weather forecast)

Forecast is more than 12 hours old.

Closest forecast is Washington Dulles International Airport, 15.2 nm (28.1 km) SW. Retrieved 2019/05/23 00:27 UTC (1 day ago):

TAF KIAD 232324Z 2400/2506 22007KT P6SM SCT110 FM240300 26005KT P6SM VCSH SCT110 FM240600 28007KT P6SM FEW040 FM241300 32010G20KT P6SM FEW250 FM242200 33011KT P6SM FEW250 FM250200 36006KT P6SM FEW070